This is the latest recevied weather packets stored in our database for station/object EA1ZE. If no packets are shown the sender has not sent any weather packets the latest 10 day(s).
| Time | Temp. | Humidity | Pressure | Rain* | Wind** | Luminosity | Snow |
|---|---|---|---|---|---|---|---|
| 1777477536 | 20° C | 57% | 1005.7 hPa | 0 mm | - | - | - |
| 1777476636 | 19.44° C | 58% | 1005.5 hPa | 0 mm | - | - | - |
| 1777475740 | 19.44° C | 60% | 1005.5 hPa | 0 mm | - | - | - |
| 1777474831 | 18.89° C | 64% | 1005.5 hPa | 0 mm | - | - | - |
| 1777473929 | 18.33° C | 67% | 1005.5 hPa | 0 mm | - | - | - |
| 1777473026 | 17.78° C | 68% | 1005.6 hPa | 0 mm | - | - | - |
| 1777472127 | 17.22° C | 70% | 1005.9 hPa | 0 mm | - | - | - |
| 1777471286 | 17.22° C | 69% | 1005.8 hPa | 0 mm | - | - | - |
| 1777470398 | 17.22° C | 70% | 1006 hPa | 0 mm | - | - | - |
| 1777469506 | 17.78° C | 69% | 1006.2 hPa | 0 mm | - | - | - |
| 1777468607 | 17.78° C | 67% | 1006.1 hPa | 0 mm | - | - | - |
| 1777467693 | 18.33° C | 65% | 1006.1 hPa | 0 mm | - | - | - |
| 1777466795 | 18.33° C | 62% | 1005.9 hPa | 0 mm | - | - | - |
| 1777465894 | 17.22° C | 67% | 1005.9 hPa | 0 mm | - | - | - |
| 1777464999 | 17.78° C | 65% | 1005.8 hPa | 0 mm | - | - | - |
| 1777464109 | 17.78° C | 64% | 1005.9 hPa | 0 mm | - | - | - |
| 1777463208 | 17.78° C | 66% | 1006 hPa | 0 mm | - | - | - |
| 1777462309 | 17.22° C | 68% | 1006 hPa | 0 mm | - | - | - |
| 1777461400 | 17.78° C | 68% | 1006 hPa | 0 mm | - | - | - |
| 1777460497 | 17.22° C | 68% | 1006.1 hPa | 0 mm | - | - | - |
| 1777459610 | 16.67° C | 71% | 1006.1 hPa | 0 mm | - | - | - |
| 1777458693 | 16.67° C | 72% | 1006 hPa | 0 mm | - | - | - |
| 1777457810 | 16.11° C | 76% | 1006.1 hPa | 0 mm | - | - | - |
| 1777456906 | 16.11° C | 76% | 1006.3 hPa | 0 mm | - | - | - |
| 1777455987 | 16.11° C | 76% | 1006.1 hPa | 0 mm | - | - | - |
* Rain latest hour (hover to see other rain measurements)
** Current wind speed in m/s (hover to see current wind gust speed)